sensor_id;sensor_type;location;lat;lon;timestamp;P1;durP1;ratioP1;P2;durP2;ratioP2
35745;SDS011;21870;42.812;74.628;2022-09-09T00:01:07;10.55;;;4.47;;
35745;SDS011;21870;42.812;74.628;2022-09-09T00:03:53;18.27;;;5.25;;
35745;SDS011;21870;42.812;74.628;2022-09-09T00:09:47;9.82;;;4.20;;
35745;SDS011;21870;42.812;74.628;2022-09-09T00:12:22;15.05;;;4.32;;
35745;SDS011;21870;42.812;74.628;2022-09-09T00:15:07;9.77;;;3.80;;
35745;SDS011;21870;42.812;74.628;2022-09-09T00:17:42;5.45;;;3.85;;
35745;SDS011;21870;42.812;74.628;2022-09-09T00:23:23;11.32;;;4.50;;
35745;SDS011;21870;42.812;74.628;2022-09-09T00:26:04;8.57;;;3.60;;
35745;SDS011;21870;42.812;74.628;2022-09-09T00:28:38;5.43;;;3.53;;
35745;SDS011;21870;42.812;74.628;2022-09-09T00:31:23;9.50;;;3.33;;
35745;SDS011;21870;42.812;74.628;2022-09-09T00:33:53;5.32;;;3.63;;
35745;SDS011;21870;42.812;74.628;2022-09-09T00:36:24;7.15;;;3.45;;
35745;SDS011;21870;42.812;74.628;2022-09-09T00:38:57;12.32;;;4.30;;
35745;SDS011;21870;42.812;74.628;2022-09-09T00:44:30;7.65;;;3.38;;
35745;SDS011;21870;42.812;74.628;2022-09-09T00:52:57;8.45;;;3.50;;
35745;SDS011;21870;42.812;74.628;2022-09-09T00:57:53;7.30;;;4.10;;
35745;SDS011;21870;42.812;74.628;2022-09-09T01:00:28;8.90;;;4.10;;
35745;SDS011;21870;42.812;74.628;2022-09-09T01:14:43;8.80;;;5.25;;
35745;SDS011;21870;42.812;74.628;2022-09-09T01:18:15;11.02;;;4.57;;
35745;SDS011;21870;42.812;74.628;2022-09-09T01:20:25;13.95;;;5.68;;
35745;SDS011;21870;42.812;74.628;2022-09-09T01:28:40;20.10;;;5.68;;
35745;SDS011;21870;42.812;74.628;2022-09-09T01:31:11;15.23;;;5.28;;
35745;SDS011;21870;42.812;74.628;2022-09-09T01:33:40;11.38;;;5.07;;
35745;SDS011;21870;42.812;74.628;2022-09-09T01:36:08;25.02;;;6.97;;
35745;SDS011;21870;42.812;74.628;2022-09-09T01:38:38;26.15;;;7.03;;
35745;SDS011;21870;42.812;74.628;2022-09-09T01:41:04;25.95;;;7.72;;
35745;SDS011;21870;42.812;74.628;2022-09-09T01:43:30;24.23;;;7.80;;
35745;SDS011;21870;42.812;74.628;2022-09-09T01:45:59;33.80;;;7.80;;
35745;SDS011;21870;42.812;74.628;2022-09-09T01:48:26;18.33;;;6.20;;
35745;SDS011;21870;42.812;74.628;2022-09-09T01:50:53;24.38;;;6.72;;
35745;SDS011;21870;42.812;74.628;2022-09-09T01:53:20;29.15;;;7.00;;
35745;SDS011;21870;42.812;74.628;2022-09-09T01:55:55;23.33;;;7.45;;
35745;SDS011;21870;42.812;74.628;2022-09-09T02:01:27;35.13;;;7.63;;
35745;SDS011;21870;42.812;74.628;2022-09-09T02:03:58;40.40;;;8.73;;
35745;SDS011;21870;42.812;74.628;2022-09-09T02:08:59;57.67;;;9.70;;
35745;SDS011;21870;42.812;74.628;2022-09-09T02:11:28;39.17;;;8.57;;
35745;SDS011;21870;42.812;74.628;2022-09-09T02:14:18;34.67;;;7.93;;
35745;SDS011;21870;42.812;74.628;2022-09-09T02:16:47;29.63;;;7.25;;
35745;SDS011;21870;42.812;74.628;2022-09-09T02:21:51;29.98;;;7.75;;
35745;SDS011;21870;42.812;74.628;2022-09-09T02:24:20;25.90;;;7.97;;
35745;SDS011;21870;42.812;74.628;2022-09-09T02:26:48;63.15;;;11.52;;
35745;SDS011;21870;42.812;74.628;2022-09-09T02:29:27;32.17;;;9.60;;
35745;SDS011;21870;42.812;74.628;2022-09-09T02:31:58;26.77;;;8.25;;
35745;SDS011;21870;42.812;74.628;2022-09-09T02:34:28;18.65;;;9.65;;
35745;SDS011;21870;42.812;74.628;2022-09-09T02:36:57;33.13;;;12.77;;
35745;SDS011;21870;42.812;74.628;2022-09-09T02:39:25;29.45;;;9.80;;
35745;SDS011;21870;42.812;74.628;2022-09-09T02:41:51;21.92;;;6.38;;
35745;SDS011;21870;42.812;74.628;2022-09-09T02:44:18;20.75;;;6.38;;
35745;SDS011;21870;42.812;74.628;2022-09-09T02:52:48;15.73;;;7.13;;
35745;SDS011;21870;42.812;74.628;2022-09-09T02:55:35;71.03;;;10.38;;
35745;SDS011;21870;42.812;74.628;2022-09-09T02:58:16;22.88;;;7.47;;
35745;SDS011;21870;42.812;74.628;2022-09-09T03:00:46;35.00;;;7.38;;
35745;SDS011;21870;42.812;74.628;2022-09-09T03:03:14;42.65;;;9.23;;
35745;SDS011;21870;42.812;74.628;2022-09-09T03:05:42;32.25;;;8.85;;
35745;SDS011;21870;42.812;74.628;2022-09-09T03:08:08;16.58;;;6.15;;
35745;SDS011;21870;42.812;74.628;2022-09-09T03:10:35;99.28;;;12.43;;
35745;SDS011;21870;42.812;74.628;2022-09-09T03:13:02;34.15;;;6.85;;
35745;SDS011;21870;42.812;74.628;2022-09-09T03:15:32;97.40;;;12.07;;
35745;SDS011;21870;42.812;74.628;2022-09-09T03:17:59;52.35;;;9.18;;
35745;SDS011;21870;42.812;74.628;2022-09-09T03:20:26;30.35;;;6.57;;
35745;SDS011;21870;42.812;74.628;2022-09-09T03:22:54;47.03;;;8.57;;
35745;SDS011;21870;42.812;74.628;2022-09-09T03:25:21;51.13;;;8.45;;
35745;SDS011;21870;42.812;74.628;2022-09-09T03:27:52;58.97;;;10.35;;
35745;SDS011;21870;42.812;74.628;2022-09-09T03:30:23;34.08;;;8.68;;
35745;SDS011;21870;42.812;74.628;2022-09-09T03:32:51;19.45;;;9.70;;
35745;SDS011;21870;42.812;74.628;2022-09-09T03:35:17;15.52;;;5.57;;
35745;SDS011;21870;42.812;74.628;2022-09-09T03:37:43;18.88;;;6.82;;
35745;SDS011;21870;42.812;74.628;2022-09-09T03:40:10;16.38;;;6.35;;
35745;SDS011;21870;42.812;74.628;2022-09-09T03:42:37;24.77;;;7.75;;
35745;SDS011;21870;42.812;74.628;2022-09-09T03:45:04;45.35;;;9.18;;
35745;SDS011;21870;42.812;74.628;2022-09-09T03:47:32;15.85;;;7.72;;
35745;SDS011;21870;42.812;74.628;2022-09-09T03:49:58;20.38;;;6.93;;
35745;SDS011;21870;42.812;74.628;2022-09-09T03:52:24;25.45;;;6.90;;
35745;SDS011;21870;42.812;74.628;2022-09-09T03:54:51;42.28;;;7.90;;
35745;SDS011;21870;42.812;74.628;2022-09-09T03:57:19;22.63;;;7.22;;
35745;SDS011;21870;42.812;74.628;2022-09-09T03:59:45;20.17;;;6.22;;
35745;SDS011;21870;42.812;74.628;2022-09-09T04:02:11;51.28;;;8.27;;
35745;SDS011;21870;42.812;74.628;2022-09-09T04:04:37;19.60;;;6.13;;
35745;SDS011;21870;42.812;74.628;2022-09-09T04:07:03;18.20;;;6.80;;
35745;SDS011;21870;42.812;74.628;2022-09-09T04:09:32;19.38;;;6.47;;
35745;SDS011;21870;42.812;74.628;2022-09-09T04:11:58;20.02;;;6.50;;
35745;SDS011;21870;42.812;74.628;2022-09-09T04:14:24;22.95;;;7.93;;
35745;SDS011;21870;42.812;74.628;2022-09-09T04:16:54;54.22;;;11.48;;
35745;SDS011;21870;42.812;74.628;2022-09-09T04:19:22;25.05;;;8.75;;
35745;SDS011;21870;42.812;74.628;2022-09-09T04:21:48;22.42;;;6.30;;
35745;SDS011;21870;42.812;74.628;2022-09-09T04:24:16;15.25;;;6.68;;
35745;SDS011;21870;42.812;74.628;2022-09-09T04:26:43;17.10;;;7.38;;
35745;SDS011;21870;42.812;74.628;2022-09-09T04:29:10;38.22;;;8.30;;
35745;SDS011;21870;42.812;74.628;2022-09-09T04:31:36;14.55;;;7.15;;
35745;SDS011;21870;42.812;74.628;2022-09-09T04:34:07;24.08;;;7.38;;
35745;SDS011;21870;42.812;74.628;2022-09-09T04:36:36;18.20;;;6.75;;
35745;SDS011;21870;42.812;74.628;2022-09-09T04:39:02;19.08;;;7.13;;
35745;SDS011;21870;42.812;74.628;2022-09-09T04:41:28;19.70;;;6.82;;
35745;SDS011;21870;42.812;74.628;2022-09-09T04:43:56;35.05;;;8.40;;
35745;SDS011;21870;42.812;74.628;2022-09-09T04:46:22;23.98;;;8.35;;
35745;SDS011;21870;42.812;74.628;2022-09-09T04:48:49;20.83;;;8.70;;
35745;SDS011;21870;42.812;74.628;2022-09-09T04:51:17;23.58;;;7.57;;
35745;SDS011;21870;42.812;74.628;2022-09-09T04:53:43;27.17;;;8.13;;
35745;SDS011;21870;42.812;74.628;2022-09-09T04:56:15;20.65;;;8.57;;
35745;SDS011;21870;42.812;74.628;2022-09-09T04:58:42;18.92;;;6.85;;
35745;SDS011;21870;42.812;74.628;2022-09-09T05:01:09;19.27;;;7.00;;
35745;SDS011;21870;42.812;74.628;2022-09-09T05:03:37;23.13;;;6.85;;
35745;SDS011;21870;42.812;74.628;2022-09-09T05:06:04;17.52;;;6.60;;
35745;SDS011;21870;42.812;74.628;2022-09-09T05:08:33;22.02;;;14.93;;
35745;SDS011;21870;42.812;74.628;2022-09-09T05:11:01;17.58;;;5.93;;
35745;SDS011;21870;42.812;74.628;2022-09-09T05:13:27;20.23;;;7.70;;
35745;SDS011;21870;42.812;74.628;2022-09-09T05:15:54;13.90;;;6.20;;
35745;SDS011;21870;42.812;74.628;2022-09-09T05:18:20;17.58;;;6.50;;
35745;SDS011;21870;42.812;74.628;2022-09-09T05:20:47;17.15;;;6.07;;
35745;SDS011;21870;42.812;74.628;2022-09-09T05:23:14;39.30;;;9.38;;
35745;SDS011;21870;42.812;74.628;2022-09-09T05:25:41;23.67;;;6.65;;
35745;SDS011;21870;42.812;74.628;2022-09-09T05:28:07;18.17;;;7.00;;
35745;SDS011;21870;42.812;74.628;2022-09-09T05:30:33;13.70;;;6.03;;
35745;SDS011;21870;42.812;74.628;2022-09-09T05:32:59;22.30;;;6.72;;
35745;SDS011;21870;42.812;74.628;2022-09-09T05:35:26;16.00;;;5.75;;
35745;SDS011;21870;42.812;74.628;2022-09-09T05:37:52;16.10;;;5.82;;
35745;SDS011;21870;42.812;74.628;2022-09-09T05:40:18;14.80;;;6.03;;
35745;SDS011;21870;42.812;74.628;2022-09-09T05:42:45;17.73;;;6.25;;
35745;SDS011;21870;42.812;74.628;2022-09-09T05:45:11;21.55;;;6.22;;
35745;SDS011;21870;42.812;74.628;2022-09-09T05:47:37;27.58;;;7.38;;
35745;SDS011;21870;42.812;74.628;2022-09-09T05:50:04;18.73;;;6.40;;
35745;SDS011;21870;42.812;74.628;2022-09-09T05:52:30;23.38;;;6.47;;
35745;SDS011;21870;42.812;74.628;2022-09-09T05:54:57;16.13;;;6.35;;
35745;SDS011;21870;42.812;74.628;2022-09-09T05:57:24;15.23;;;6.22;;
35745;SDS011;21870;42.812;74.628;2022-09-09T05:59:50;24.65;;;7.03;;
35745;SDS011;21870;42.812;74.628;2022-09-09T06:02:16;19.67;;;5.85;;
35745;SDS011;21870;42.812;74.628;2022-09-09T06:04:42;16.65;;;5.50;;
35745;SDS011;21870;42.812;74.628;2022-09-09T06:07:08;12.60;;;5.72;;
35745;SDS011;21870;42.812;74.628;2022-09-09T06:09:34;19.98;;;6.07;;
35745;SDS011;21870;42.812;74.628;2022-09-09T06:12:00;20.98;;;5.63;;
35745;SDS011;21870;42.812;74.628;2022-09-09T06:14:26;22.38;;;5.72;;
35745;SDS011;21870;42.812;74.628;2022-09-09T06:16:52;26.92;;;6.20;;
35745;SDS011;21870;42.812;74.628;2022-09-09T06:19:18;11.63;;;5.78;;
35745;SDS011;21870;42.812;74.628;2022-09-09T06:21:45;12.90;;;5.43;;
35745;SDS011;21870;42.812;74.628;2022-09-09T06:24:13;17.63;;;5.65;;
35745;SDS011;21870;42.812;74.628;2022-09-09T06:26:42;19.88;;;5.28;;
35745;SDS011;21870;42.812;74.628;2022-09-09T06:29:09;22.65;;;5.53;;
35745;SDS011;21870;42.812;74.628;2022-09-09T06:31:35;19.63;;;5.63;;
35745;SDS011;21870;42.812;74.628;2022-09-09T06:34:04;25.77;;;8.18;;
35745;SDS011;21870;42.812;74.628;2022-09-09T06:36:32;17.30;;;6.35;;
35745;SDS011;21870;42.812;74.628;2022-09-09T06:39:00;17.05;;;5.35;;
35745;SDS011;21870;42.812;74.628;2022-09-09T06:41:27;42.40;;;9.93;;
35745;SDS011;21870;42.812;74.628;2022-09-09T06:43:55;19.77;;;5.80;;
35745;SDS011;21870;42.812;74.628;2022-09-09T06:46:22;13.25;;;5.00;;
35745;SDS011;21870;42.812;74.628;2022-09-09T06:48:53;19.48;;;5.55;;
35745;SDS011;21870;42.812;74.628;2022-09-09T06:51:26;13.52;;;4.50;;
35745;SDS011;21870;42.812;74.628;2022-09-09T06:53:54;16.85;;;5.15;;
35745;SDS011;21870;42.812;74.628;2022-09-09T06:58:59;17.40;;;4.93;;
35745;SDS011;21870;42.812;74.628;2022-09-09T07:01:31;9.05;;;4.45;;
35745;SDS011;21870;42.812;74.628;2022-09-09T07:03:59;13.07;;;4.45;;
35745;SDS011;21870;42.812;74.628;2022-09-09T07:06:32;20.17;;;4.57;;
35745;SDS011;21870;42.812;74.628;2022-09-09T07:09:00;17.60;;;5.28;;
35745;SDS011;21870;42.812;74.628;2022-09-09T07:11:34;17.95;;;5.35;;
35745;SDS011;21870;42.812;74.628;2022-09-09T07:14:07;23.35;;;5.03;;
35745;SDS011;21870;42.812;74.628;2022-09-09T07:16:34;11.63;;;4.60;;
35745;SDS011;21870;42.812;74.628;2022-09-09T07:19:02;15.60;;;4.40;;
35745;SDS011;21870;42.812;74.628;2022-09-09T07:21:29;10.60;;;3.72;;
35745;SDS011;21870;42.812;74.628;2022-09-09T07:23:57;14.00;;;3.85;;
35745;SDS011;21870;42.812;74.628;2022-09-09T07:26:24;10.23;;;5.22;;
35745;SDS011;21870;42.812;74.628;2022-09-09T07:28:52;4.97;;;3.47;;
35745;SDS011;21870;42.812;74.628;2022-09-09T07:31:20;10.55;;;3.95;;
35745;SDS011;21870;42.812;74.628;2022-09-09T07:33:49;17.98;;;5.03;;
35745;SDS011;21870;42.812;74.628;2022-09-09T07:36:18;12.98;;;4.97;;
35745;SDS011;21870;42.812;74.628;2022-09-09T07:38:55;8.52;;;4.13;;
35745;SDS011;21870;42.812;74.628;2022-09-09T07:41:24;8.07;;;4.22;;
35745;SDS011;21870;42.812;74.628;2022-09-09T07:43:57;9.68;;;4.35;;
35745;SDS011;21870;42.812;74.628;2022-09-09T07:46:24;11.55;;;4.13;;
35745;SDS011;21870;42.812;74.628;2022-09-09T07:48:52;11.40;;;4.32;;
35745;SDS011;21870;42.812;74.628;2022-09-09T07:51:20;23.17;;;7.63;;
35745;SDS011;21870;42.812;74.628;2022-09-09T07:53:54;11.98;;;4.38;;
35745;SDS011;21870;42.812;74.628;2022-09-09T07:56:25;10.82;;;3.80;;
35745;SDS011;21870;42.812;74.628;2022-09-09T07:58:53;10.68;;;4.65;;
35745;SDS011;21870;42.812;74.628;2022-09-09T08:01:24;15.95;;;4.82;;
35745;SDS011;21870;42.812;74.628;2022-09-09T08:03:55;14.55;;;4.63;;
35745;SDS011;21870;42.812;74.628;2022-09-09T08:06:26;16.08;;;5.25;;
35745;SDS011;21870;42.812;74.628;2022-09-09T08:08:54;14.70;;;4.78;;
35745;SDS011;21870;42.812;74.628;2022-09-09T08:11:21;15.35;;;5.72;;
35745;SDS011;21870;42.812;74.628;2022-09-09T08:13:49;44.15;;;7.25;;
35745;SDS011;21870;42.812;74.628;2022-09-09T08:16:18;59.40;;;8.93;;
35745;SDS011;21870;42.812;74.628;2022-09-09T08:18:49;30.45;;;6.72;;
35745;SDS011;21870;42.812;74.628;2022-09-09T08:21:20;17.48;;;5.32;;
35745;SDS011;21870;42.812;74.628;2022-09-09T08:23:55;19.60;;;5.90;;
35745;SDS011;21870;42.812;74.628;2022-09-09T08:26:29;24.23;;;5.55;;
35745;SDS011;21870;42.812;74.628;2022-09-09T08:29:00;16.33;;;5.93;;
35745;SDS011;21870;42.812;74.628;2022-09-09T08:31:28;15.18;;;4.30;;
35745;SDS011;21870;42.812;74.628;2022-09-09T08:33:58;13.18;;;3.47;;
35745;SDS011;21870;42.812;74.628;2022-09-09T08:36:28;13.40;;;3.92;;
35745;SDS011;21870;42.812;74.628;2022-09-09T08:38:56;16.02;;;3.90;;
35745;SDS011;21870;42.812;74.628;2022-09-09T08:55:27;6.97;;;4.40;;
35745;SDS011;21870;42.812;74.628;2022-09-09T08:58:13;24.45;;;5.22;;
35745;SDS011;21870;42.812;74.628;2022-09-09T09:00:44;12.00;;;4.28;;
35745;SDS011;21870;42.812;74.628;2022-09-09T09:03:28;14.90;;;4.15;;
35745;SDS011;21870;42.812;74.628;2022-09-09T09:06:23;13.88;;;4.95;;
35745;SDS011;21870;42.812;74.628;2022-09-09T09:11:52;16.35;;;5.43;;
35745;SDS011;21870;42.812;74.628;2022-09-09T09:14:21;17.45;;;5.25;;
35745;SDS011;21870;42.812;74.628;2022-09-09T09:19:24;20.63;;;5.38;;
35745;SDS011;21870;42.812;74.628;2022-09-09T09:24:54;16.58;;;5.05;;
35745;SDS011;21870;42.812;74.628;2022-09-09T09:30:38;13.65;;;4.90;;
35745;SDS011;21870;42.812;74.628;2022-09-09T09:33:22;25.65;;;4.80;;
35745;SDS011;21870;42.812;74.628;2022-09-09T09:35:53;16.52;;;4.65;;
35745;SDS011;21870;42.812;74.628;2022-09-09T09:38:21;12.60;;;4.47;;
35745;SDS011;21870;42.812;74.628;2022-09-09T09:40:49;15.40;;;5.00;;
35745;SDS011;21870;42.812;74.628;2022-09-09T09:43:30;14.20;;;4.15;;
35745;SDS011;21870;42.812;74.628;2022-09-09T09:45:58;15.57;;;5.60;;
35745;SDS011;21870;42.812;74.628;2022-09-09T09:48:25;12.10;;;4.40;;
35745;SDS011;21870;42.812;74.628;2022-09-09T09:50:56;12.07;;;3.83;;
35745;SDS011;21870;42.812;74.628;2022-09-09T09:53:27;35.65;;;6.68;;
35745;SDS011;21870;42.812;74.628;2022-09-09T09:55:59;10.63;;;4.13;;
35745;SDS011;21870;42.812;74.628;2022-09-09T09:58:26;13.05;;;4.15;;
35745;SDS011;21870;42.812;74.628;2022-09-09T10:00:58;25.30;;;6.18;;
35745;SDS011;21870;42.812;74.628;2022-09-09T10:03:27;17.15;;;3.88;;
35745;SDS011;21870;42.812;74.628;2022-09-09T10:06:03;12.98;;;3.80;;
35745;SDS011;21870;42.812;74.628;2022-09-09T10:08:29;16.65;;;4.45;;
35745;SDS011;21870;42.812;74.628;2022-09-09T10:13:59;14.95;;;6.03;;
35745;SDS011;21870;42.812;74.628;2022-09-09T10:19:31;20.42;;;4.82;;
35745;SDS011;21870;42.812;74.628;2022-09-09T10:22:02;25.20;;;6.07;;
35745;SDS011;21870;42.812;74.628;2022-09-09T10:24:40;19.02;;;4.63;;
35745;SDS011;21870;42.812;74.628;2022-09-09T10:33:21;12.98;;;4.80;;
35745;SDS011;21870;42.812;74.628;2022-09-09T10:36:19;18.83;;;4.75;;
35745;SDS011;21870;42.812;74.628;2022-09-09T10:42:04;47.28;;;7.28;;
35745;SDS011;21870;42.812;74.628;2022-09-09T10:48:46;29.88;;;5.95;;
35745;SDS011;21870;42.812;74.628;2022-09-09T10:53:52;17.08;;;5.40;;
35745;SDS011;21870;42.812;74.628;2022-09-09T10:59:41;30.38;;;5.40;;
35745;SDS011;21870;42.812;74.628;2022-09-09T11:02:15;10.98;;;4.53;;
35745;SDS011;21870;42.812;74.628;2022-09-09T11:07:53;6.95;;;3.50;;
35745;SDS011;21870;42.812;74.628;2022-09-09T11:10:29;13.55;;;4.80;;
35745;SDS011;21870;42.812;74.628;2022-09-09T11:16:15;14.00;;;4.82;;
35745;SDS011;21870;42.812;74.628;2022-09-09T11:18:59;15.23;;;4.45;;
35745;SDS011;21870;42.812;74.628;2022-09-09T11:21:46;19.77;;;4.90;;
35745;SDS011;21870;42.812;74.628;2022-09-09T11:24:16;16.10;;;4.38;;
35745;SDS011;21870;42.812;74.628;2022-09-09T11:26:49;10.32;;;4.00;;
35745;SDS011;21870;42.812;74.628;2022-09-09T11:45:42;21.77;;;6.00;;
35745;SDS011;21870;42.812;74.628;2022-09-09T11:48:22;22.33;;;5.93;;
35745;SDS011;21870;42.812;74.628;2022-09-09T11:50:57;11.52;;;5.10;;
35745;SDS011;21870;42.812;74.628;2022-09-09T11:53:25;15.00;;;3.97;;
35745;SDS011;21870;42.812;74.628;2022-09-09T11:56:53;12.90;;;3.78;;
35745;SDS011;21870;42.812;74.628;2022-09-09T11:59:27;9.68;;;4.65;;
35745;SDS011;21870;42.812;74.628;2022-09-09T12:02:10;21.35;;;4.97;;
35745;SDS011;21870;42.812;74.628;2022-09-09T12:07:32;15.85;;;4.82;;
35745;SDS011;21870;42.812;74.628;2022-09-09T12:12:43;21.60;;;6.00;;
35745;SDS011;21870;42.812;74.628;2022-09-09T12:17:42;14.40;;;4.75;;
35745;SDS011;21870;42.812;74.628;2022-09-09T12:32:09;9.95;;;4.30;;
35745;SDS011;21870;42.812;74.628;2022-09-09T12:37:28;9.90;;;4.25;;
35745;SDS011;21870;42.812;74.628;2022-09-09T12:40:15;7.97;;;4.60;;
35745;SDS011;21870;42.812;74.628;2022-09-09T12:42:48;13.52;;;5.25;;
35745;SDS011;21870;42.812;74.628;2022-09-09T12:45:22;29.63;;;5.88;;
35745;SDS011;21870;42.812;74.628;2022-09-09T12:47:52;21.83;;;6.65;;
35745;SDS011;21870;42.812;74.628;2022-09-09T12:50:26;16.15;;;6.22;;
35745;SDS011;21870;42.812;74.628;2022-09-09T12:52:56;20.50;;;6.30;;
35745;SDS011;21870;42.812;74.628;2022-09-09T12:55:31;19.58;;;6.18;;
35745;SDS011;21870;42.812;74.628;2022-09-09T12:58:03;13.23;;;6.47;;
35745;SDS011;21870;42.812;74.628;2022-09-09T13:00:31;21.02;;;7.07;;
35745;SDS011;21870;42.812;74.628;2022-09-09T13:02:59;17.27;;;7.50;;
35745;SDS011;21870;42.812;74.628;2022-09-09T13:05:33;18.13;;;7.25;;
35745;SDS011;21870;42.812;74.628;2022-09-09T13:08:02;20.48;;;7.30;;
35745;SDS011;21870;42.812;74.628;2022-09-09T13:10:36;14.45;;;7.18;;
35745;SDS011;21870;42.812;74.628;2022-09-09T13:13:15;19.23;;;7.35;;
35745;SDS011;21870;42.812;74.628;2022-09-09T13:15:52;17.27;;;8.20;;
35745;SDS011;21870;42.812;74.628;2022-09-09T13:18:21;16.13;;;7.60;;
35745;SDS011;21870;42.812;74.628;2022-09-09T13:20:50;23.45;;;8.02;;
35745;SDS011;21870;42.812;74.628;2022-09-09T13:23:18;17.80;;;7.78;;
35745;SDS011;21870;42.812;74.628;2022-09-09T13:25:55;26.60;;;7.20;;
35745;SDS011;21870;42.812;74.628;2022-09-09T13:28:26;32.05;;;9.10;;
35745;SDS011;21870;42.812;74.628;2022-09-09T13:30:58;30.42;;;8.82;;
35745;SDS011;21870;42.812;74.628;2022-09-09T13:33:32;25.40;;;8.02;;
35745;SDS011;21870;42.812;74.628;2022-09-09T13:38:31;20.08;;;7.53;;
35745;SDS011;21870;42.812;74.628;2022-09-09T13:41:08;24.65;;;7.75;;
35745;SDS011;21870;42.812;74.628;2022-09-09T13:43:36;37.13;;;8.38;;
35745;SDS011;21870;42.812;74.628;2022-09-09T13:51:43;24.52;;;8.75;;
35745;SDS011;21870;42.812;74.628;2022-09-09T13:54:13;34.38;;;9.02;;
35745;SDS011;21870;42.812;74.628;2022-09-09T13:56:40;43.45;;;10.13;;
35745;SDS011;21870;42.812;74.628;2022-09-09T13:59:11;24.20;;;9.10;;
35745;SDS011;21870;42.812;74.628;2022-09-09T14:01:39;29.10;;;9.65;;
35745;SDS011;21870;42.812;74.628;2022-09-09T14:04:06;28.73;;;10.25;;
35745;SDS011;21870;42.812;74.628;2022-09-09T14:06:34;26.95;;;10.93;;
35745;SDS011;21870;42.812;74.628;2022-09-09T14:09:03;24.65;;;13.43;;
35745;SDS011;21870;42.812;74.628;2022-09-09T14:11:40;27.80;;;11.82;;
35745;SDS011;21870;42.812;74.628;2022-09-09T14:14:06;22.42;;;10.45;;
35745;SDS011;21870;42.812;74.628;2022-09-09T14:16:32;23.15;;;10.23;;
35745;SDS011;21870;42.812;74.628;2022-09-09T14:18:59;29.80;;;9.77;;
35745;SDS011;21870;42.812;74.628;2022-09-09T14:21:25;18.90;;;10.43;;
35745;SDS011;21870;42.812;74.628;2022-09-09T14:23:52;22.95;;;9.95;;
35745;SDS011;21870;42.812;74.628;2022-09-09T14:26:19;21.92;;;10.18;;
35745;SDS011;21870;42.812;74.628;2022-09-09T14:28:47;17.38;;;8.90;;
35745;SDS011;21870;42.812;74.628;2022-09-09T14:31:13;22.45;;;9.75;;
35745;SDS011;21870;42.812;74.628;2022-09-09T14:33:40;23.23;;;9.75;;
35745;SDS011;21870;42.812;74.628;2022-09-09T14:36:06;19.77;;;8.43;;
35745;SDS011;21870;42.812;74.628;2022-09-09T14:38:33;26.38;;;9.23;;
35745;SDS011;21870;42.812;74.628;2022-09-09T14:41:15;25.00;;;8.75;;
35745;SDS011;21870;42.812;74.628;2022-09-09T14:43:42;22.80;;;8.60;;
35745;SDS011;21870;42.812;74.628;2022-09-09T14:46:10;24.17;;;10.57;;
35745;SDS011;21870;42.812;74.628;2022-09-09T14:48:38;27.73;;;8.48;;
35745;SDS011;21870;42.812;74.628;2022-09-09T14:51:09;26.13;;;8.57;;
35745;SDS011;21870;42.812;74.628;2022-09-09T14:53:38;17.83;;;9.23;;
35745;SDS011;21870;42.812;74.628;2022-09-09T14:56:06;20.83;;;6.80;;
35745;SDS011;21870;42.812;74.628;2022-09-09T14:58:33;12.23;;;8.00;;
35745;SDS011;21870;42.812;74.628;2022-09-09T15:01:13;23.88;;;8.15;;
35745;SDS011;21870;42.812;74.628;2022-09-09T15:03:41;20.30;;;7.47;;
35745;SDS011;21870;42.812;74.628;2022-09-09T15:06:13;19.90;;;8.45;;
35745;SDS011;21870;42.812;74.628;2022-09-09T15:08:41;13.95;;;6.93;;
35745;SDS011;21870;42.812;74.628;2022-09-09T15:11:09;21.20;;;7.82;;
35745;SDS011;21870;42.812;74.628;2022-09-09T15:13:36;21.10;;;6.95;;
35745;SDS011;21870;42.812;74.628;2022-09-09T15:16:05;11.60;;;6.32;;
35745;SDS011;21870;42.812;74.628;2022-09-09T15:18:35;16.65;;;6.80;;
35745;SDS011;21870;42.812;74.628;2022-09-09T15:21:03;9.93;;;6.13;;
35745;SDS011;21870;42.812;74.628;2022-09-09T15:23:33;10.75;;;5.95;;
35745;SDS011;21870;42.812;74.628;2022-09-09T15:26:00;14.05;;;6.20;;
35745;SDS011;21870;42.812;74.628;2022-09-09T15:28:26;17.15;;;6.15;;
35745;SDS011;21870;42.812;74.628;2022-09-09T15:30:53;17.58;;;7.05;;
35745;SDS011;21870;42.812;74.628;2022-09-09T15:33:20;17.63;;;7.07;;
35745;SDS011;21870;42.812;74.628;2022-09-09T15:35:47;24.38;;;7.95;;
35745;SDS011;21870;42.812;74.628;2022-09-09T15:38:15;22.15;;;6.95;;
35745;SDS011;21870;42.812;74.628;2022-09-09T15:40:42;13.27;;;6.50;;
35745;SDS011;21870;42.812;74.628;2022-09-09T15:43:09;13.75;;;6.85;;
35745;SDS011;21870;42.812;74.628;2022-09-09T15:45:36;17.10;;;8.05;;
35745;SDS011;21870;42.812;74.628;2022-09-09T15:48:03;23.38;;;8.13;;
35745;SDS011;21870;42.812;74.628;2022-09-09T15:50:30;24.50;;;9.23;;
35745;SDS011;21870;42.812;74.628;2022-09-09T15:52:58;34.22;;;16.75;;
35745;SDS011;21870;42.812;74.628;2022-09-09T15:55:24;20.40;;;10.88;;
35745;SDS011;21870;42.812;74.628;2022-09-09T15:57:51;21.40;;;9.27;;
35745;SDS011;21870;42.812;74.628;2022-09-09T16:00:20;21.60;;;9.45;;
35745;SDS011;21870;42.812;74.628;2022-09-09T16:02:47;19.13;;;8.13;;
35745;SDS011;21870;42.812;74.628;2022-09-09T16:05:14;21.95;;;7.60;;
35745;SDS011;21870;42.812;74.628;2022-09-09T16:07:40;20.20;;;9.15;;
35745;SDS011;21870;42.812;74.628;2022-09-09T16:10:07;20.83;;;8.07;;
35745;SDS011;21870;42.812;74.628;2022-09-09T16:12:34;19.85;;;7.45;;
35745;SDS011;21870;42.812;74.628;2022-09-09T16:15:00;15.13;;;6.30;;
35745;SDS011;21870;42.812;74.628;2022-09-09T16:17:26;24.60;;;8.10;;
35745;SDS011;21870;42.812;74.628;2022-09-09T16:19:52;24.00;;;8.25;;
35745;SDS011;21870;42.812;74.628;2022-09-09T16:22:19;21.55;;;7.63;;
35745;SDS011;21870;42.812;74.628;2022-09-09T16:24:46;21.38;;;7.00;;
35745;SDS011;21870;42.812;74.628;2022-09-09T16:27:12;19.27;;;6.80;;
35745;SDS011;21870;42.812;74.628;2022-09-09T16:29:39;12.35;;;7.22;;
35745;SDS011;21870;42.812;74.628;2022-09-09T16:32:05;22.65;;;8.52;;
35745;SDS011;21870;42.812;74.628;2022-09-09T16:34:31;21.88;;;8.68;;
35745;SDS011;21870;42.812;74.628;2022-09-09T16:36:58;20.30;;;6.88;;
35745;SDS011;21870;42.812;74.628;2022-09-09T16:39:24;15.43;;;5.68;;
35745;SDS011;21870;42.812;74.628;2022-09-09T16:41:50;13.20;;;5.90;;
35745;SDS011;21870;42.812;74.628;2022-09-09T16:44:17;19.55;;;6.65;;
35745;SDS011;21870;42.812;74.628;2022-09-09T16:46:44;19.80;;;5.53;;
35745;SDS011;21870;42.812;74.628;2022-09-09T16:49:13;14.95;;;5.65;;
35745;SDS011;21870;42.812;74.628;2022-09-09T16:51:45;19.92;;;6.43;;
35745;SDS011;21870;42.812;74.628;2022-09-09T16:54:12;14.55;;;5.55;;
35745;SDS011;21870;42.812;74.628;2022-09-09T16:56:41;13.45;;;5.50;;
35745;SDS011;21870;42.812;74.628;2022-09-09T16:59:10;13.90;;;5.40;;
35745;SDS011;21870;42.812;74.628;2022-09-09T17:01:38;10.70;;;4.95;;
35745;SDS011;21870;42.812;74.628;2022-09-09T17:04:10;16.40;;;5.75;;
35745;SDS011;21870;42.812;74.628;2022-09-09T17:06:38;24.25;;;5.80;;
35745;SDS011;21870;42.812;74.628;2022-09-09T17:09:09;16.23;;;7.22;;
35745;SDS011;21870;42.812;74.628;2022-09-09T17:11:37;24.17;;;20.35;;
35745;SDS011;21870;42.812;74.628;2022-09-09T17:14:04;16.35;;;10.65;;